sensor_id;sensor_type;location;lat;lon;timestamp;temperature;humidity
15556;DHT22;7879;48.660;9.116;2023-08-06T00:00:55;15.40;99.90
15556;DHT22;7879;48.660;9.116;2023-08-06T00:03:22;15.40;99.90
15556;DHT22;7879;48.660;9.116;2023-08-06T00:05:49;15.30;99.90
15556;DHT22;7879;48.660;9.116;2023-08-06T00:08:16;15.30;99.90
15556;DHT22;7879;48.660;9.116;2023-08-06T00:10:43;15.20;99.90
15556;DHT22;7879;48.660;9.116;2023-08-06T00:13:10;15.20;99.90
15556;DHT22;7879;48.660;9.116;2023-08-06T00:15:36;15.20;99.90
15556;DHT22;7879;48.660;9.116;2023-08-06T00:18:03;15.30;99.90
15556;DHT22;7879;48.660;9.116;2023-08-06T00:20:30;15.20;99.90
15556;DHT22;7879;48.660;9.116;2023-08-06T00:22:57;15.20;99.90
15556;DHT22;7879;48.660;9.116;2023-08-06T00:25:24;15.10;99.90
15556;DHT22;7879;48.660;9.116;2023-08-06T00:27:51;15.10;99.90
15556;DHT22;7879;48.660;9.116;2023-08-06T00:30:17;15.00;99.90
15556;DHT22;7879;48.660;9.116;2023-08-06T00:32:44;14.80;99.90
15556;DHT22;7879;48.660;9.116;2023-08-06T00:35:11;14.80;99.90
15556;DHT22;7879;48.660;9.116;2023-08-06T00:37:40;14.70;99.90
15556;DHT22;7879;48.660;9.116;2023-08-06T00:40:07;14.70;99.90
15556;DHT22;7879;48.660;9.116;2023-08-06T00:42:34;14.60;99.90
15556;DHT22;7879;48.660;9.116;2023-08-06T00:45:02;14.70;99.90
15556;DHT22;7879;48.660;9.116;2023-08-06T00:47:29;14.60;99.90
15556;DHT22;7879;48.660;9.116;2023-08-06T00:49:57;14.60;99.90
15556;DHT22;7879;48.660;9.116;2023-08-06T00:52:23;14.60;99.90
15556;DHT22;7879;48.660;9.116;2023-08-06T00:54:50;14.60;99.90
15556;DHT22;7879;48.660;9.116;2023-08-06T00:57:17;14.60;99.90
15556;DHT22;7879;48.660;9.116;2023-08-06T00:59:45;14.50;99.90
15556;DHT22;7879;48.660;9.116;2023-08-06T01:02:12;14.50;99.90
15556;DHT22;7879;48.660;9.116;2023-08-06T01:04:39;14.40;99.90
15556;DHT22;7879;48.660;9.116;2023-08-06T01:13:11;14.30;99.90
15556;DHT22;7879;48.660;9.116;2023-08-06T01:15:46;14.20;99.90
15556;DHT22;7879;48.660;9.116;2023-08-06T01:18:16;14.20;99.90
15556;DHT22;7879;48.660;9.116;2023-08-06T01:20:43;14.20;99.90
15556;DHT22;7879;48.660;9.116;2023-08-06T01:23:10;14.20;99.90
15556;DHT22;7879;48.660;9.116;2023-08-06T01:26:05;14.10;99.90
15556;DHT22;7879;48.660;9.116;2023-08-06T01:29:08;14.00;99.90
15556;DHT22;7879;48.660;9.116;2023-08-06T01:31:42;14.00;99.90
15556;DHT22;7879;48.660;9.116;2023-08-06T01:34:21;14.00;99.90
15556;DHT22;7879;48.660;9.116;2023-08-06T01:36:48;13.90;99.90
15556;DHT22;7879;48.660;9.116;2023-08-06T01:39:15;13.90;99.90
15556;DHT22;7879;48.660;9.116;2023-08-06T01:41:42;13.80;99.90
15556;DHT22;7879;48.660;9.116;2023-08-06T01:44:08;13.80;99.90
15556;DHT22;7879;48.660;9.116;2023-08-06T01:46:35;13.80;99.90
15556;DHT22;7879;48.660;9.116;2023-08-06T01:49:02;13.80;99.90
15556;DHT22;7879;48.660;9.116;2023-08-06T01:51:29;13.80;99.90
15556;DHT22;7879;48.660;9.116;2023-08-06T01:53:55;13.80;99.90
15556;DHT22;7879;48.660;9.116;2023-08-06T01:56:22;13.80;99.90
15556;DHT22;7879;48.660;9.116;2023-08-06T01:58:49;13.80;99.90
15556;DHT22;7879;48.660;9.116;2023-08-06T02:01:16;13.80;99.90
15556;DHT22;7879;48.660;9.116;2023-08-06T02:03:42;13.80;99.90
15556;DHT22;7879;48.660;9.116;2023-08-06T02:06:09;13.70;99.90
15556;DHT22;7879;48.660;9.116;2023-08-06T02:08:36;13.60;99.90
15556;DHT22;7879;48.660;9.116;2023-08-06T02:11:03;13.60;99.90
15556;DHT22;7879;48.660;9.116;2023-08-06T02:13:30;13.60;99.90
15556;DHT22;7879;48.660;9.116;2023-08-06T02:15:57;13.60;99.90
15556;DHT22;7879;48.660;9.116;2023-08-06T02:18:24;13.60;99.90
15556;DHT22;7879;48.660;9.116;2023-08-06T02:20:58;13.50;99.90
15556;DHT22;7879;48.660;9.116;2023-08-06T02:23:25;13.50;99.90
15556;DHT22;7879;48.660;9.116;2023-08-06T02:26:02;13.50;99.90
15556;DHT22;7879;48.660;9.116;2023-08-06T02:28:30;13.50;99.90
15556;DHT22;7879;48.660;9.116;2023-08-06T02:30:58;13.50;99.90
15556;DHT22;7879;48.660;9.116;2023-08-06T02:33:24;13.40;99.90
15556;DHT22;7879;48.660;9.116;2023-08-06T02:35:51;13.40;99.90
15556;DHT22;7879;48.660;9.116;2023-08-06T02:38:24;13.30;99.90
15556;DHT22;7879;48.660;9.116;2023-08-06T02:40:51;13.20;99.90
15556;DHT22;7879;48.660;9.116;2023-08-06T02:43:18;13.20;99.90
15556;DHT22;7879;48.660;9.116;2023-08-06T02:45:45;13.20;99.90
15556;DHT22;7879;48.660;9.116;2023-08-06T02:48:11;13.20;99.90
15556;DHT22;7879;48.660;9.116;2023-08-06T02:50:42;13.20;99.90
15556;DHT22;7879;48.660;9.116;2023-08-06T02:53:09;13.30;99.90
15556;DHT22;7879;48.660;9.116;2023-08-06T02:55:36;13.30;99.90
15556;DHT22;7879;48.660;9.116;2023-08-06T02:58:03;13.30;99.90
15556;DHT22;7879;48.660;9.116;2023-08-06T03:00:29;13.30;99.90
15556;DHT22;7879;48.660;9.116;2023-08-06T03:02:56;13.30;99.90
15556;DHT22;7879;48.660;9.116;2023-08-06T03:05:23;13.30;99.90
15556;DHT22;7879;48.660;9.116;2023-08-06T03:07:50;13.30;99.90
15556;DHT22;7879;48.660;9.116;2023-08-06T03:10:17;13.30;99.90
15556;DHT22;7879;48.660;9.116;2023-08-06T03:12:44;13.30;99.90
15556;DHT22;7879;48.660;9.116;2023-08-06T03:15:10;13.20;99.90
15556;DHT22;7879;48.660;9.116;2023-08-06T03:17:37;13.20;99.90
15556;DHT22;7879;48.660;9.116;2023-08-06T03:20:05;13.20;99.90
15556;DHT22;7879;48.660;9.116;2023-08-06T03:22:32;13.30;99.90
15556;DHT22;7879;48.660;9.116;2023-08-06T03:24:58;13.20;99.90
15556;DHT22;7879;48.660;9.116;2023-08-06T03:27:25;13.20;99.90
15556;DHT22;7879;48.660;9.116;2023-08-06T03:29:52;13.20;99.90
15556;DHT22;7879;48.660;9.116;2023-08-06T03:32:19;13.20;99.90
15556;DHT22;7879;48.660;9.116;2023-08-06T03:34:46;13.20;99.90
15556;DHT22;7879;48.660;9.116;2023-08-06T03:37:12;13.20;99.90
15556;DHT22;7879;48.660;9.116;2023-08-06T03:39:40;13.30;99.90
15556;DHT22;7879;48.660;9.116;2023-08-06T03:42:06;13.30;99.90
15556;DHT22;7879;48.660;9.116;2023-08-06T03:44:33;13.30;99.90
15556;DHT22;7879;48.660;9.116;2023-08-06T03:47:00;13.30;99.90
15556;DHT22;7879;48.660;9.116;2023-08-06T03:49:26;13.30;99.90
15556;DHT22;7879;48.660;9.116;2023-08-06T03:51:53;13.30;99.90
15556;DHT22;7879;48.660;9.116;2023-08-06T03:54:20;13.30;99.90
15556;DHT22;7879;48.660;9.116;2023-08-06T03:56:47;13.40;99.90
15556;DHT22;7879;48.660;9.116;2023-08-06T03:59:14;13.40;99.90
15556;DHT22;7879;48.660;9.116;2023-08-06T04:01:41;13.50;99.90
15556;DHT22;7879;48.660;9.116;2023-08-06T04:04:07;13.40;99.90
15556;DHT22;7879;48.660;9.116;2023-08-06T04:06:34;13.50;99.90
15556;DHT22;7879;48.660;9.116;2023-08-06T04:09:01;13.50;99.90
15556;DHT22;7879;48.660;9.116;2023-08-06T04:11:27;13.50;99.90
15556;DHT22;7879;48.660;9.116;2023-08-06T04:13:54;13.50;99.90
15556;DHT22;7879;48.660;9.116;2023-08-06T04:16:21;13.50;99.90
15556;DHT22;7879;48.660;9.116;2023-08-06T04:18:48;13.50;99.90
15556;DHT22;7879;48.660;9.116;2023-08-06T04:21:15;13.50;99.90
15556;DHT22;7879;48.660;9.116;2023-08-06T04:23:42;13.50;99.90
15556;DHT22;7879;48.660;9.116;2023-08-06T04:26:09;13.50;99.90
15556;DHT22;7879;48.660;9.116;2023-08-06T04:28:35;13.50;99.90
15556;DHT22;7879;48.660;9.116;2023-08-06T04:31:02;13.50;99.90
15556;DHT22;7879;48.660;9.116;2023-08-06T04:33:29;13.40;99.90
15556;DHT22;7879;48.660;9.116;2023-08-06T04:35:57;13.40;99.90
15556;DHT22;7879;48.660;9.116;2023-08-06T04:38:24;13.40;99.90
15556;DHT22;7879;48.660;9.116;2023-08-06T04:40:54;13.40;99.90
15556;DHT22;7879;48.660;9.116;2023-08-06T04:43:21;13.30;99.90
15556;DHT22;7879;48.660;9.116;2023-08-06T04:45:49;13.40;99.90
15556;DHT22;7879;48.660;9.116;2023-08-06T04:48:17;13.40;99.90
15556;DHT22;7879;48.660;9.116;2023-08-06T04:50:47;13.40;99.90
15556;DHT22;7879;48.660;9.116;2023-08-06T04:53:15;13.30;99.90
15556;DHT22;7879;48.660;9.116;2023-08-06T04:55:42;13.30;99.90
15556;DHT22;7879;48.660;9.116;2023-08-06T04:58:10;13.30;99.90
15556;DHT22;7879;48.660;9.116;2023-08-06T05:00:37;13.30;99.90
15556;DHT22;7879;48.660;9.116;2023-08-06T05:03:05;13.30;99.90
15556;DHT22;7879;48.660;9.116;2023-08-06T05:05:32;13.30;99.90
15556;DHT22;7879;48.660;9.116;2023-08-06T05:07:59;13.30;99.90
15556;DHT22;7879;48.660;9.116;2023-08-06T05:10:26;13.30;99.90
15556;DHT22;7879;48.660;9.116;2023-08-06T05:12:53;13.30;99.90
15556;DHT22;7879;48.660;9.116;2023-08-06T05:15:20;13.30;99.90
15556;DHT22;7879;48.660;9.116;2023-08-06T05:17:47;13.30;99.90
15556;DHT22;7879;48.660;9.116;2023-08-06T05:20:13;13.30;99.90
15556;DHT22;7879;48.660;9.116;2023-08-06T05:22:41;13.30;99.90
15556;DHT22;7879;48.660;9.116;2023-08-06T05:25:08;13.40;99.90
15556;DHT22;7879;48.660;9.116;2023-08-06T05:27:35;13.40;99.90
15556;DHT22;7879;48.660;9.116;2023-08-06T05:30:01;13.40;99.90
15556;DHT22;7879;48.660;9.116;2023-08-06T05:32:28;13.40;99.90
15556;DHT22;7879;48.660;9.116;2023-08-06T05:34:55;13.50;99.90
15556;DHT22;7879;48.660;9.116;2023-08-06T05:37:22;13.50;99.90
15556;DHT22;7879;48.660;9.116;2023-08-06T05:39:49;13.60;99.90
15556;DHT22;7879;48.660;9.116;2023-08-06T05:42:16;13.60;99.90
15556;DHT22;7879;48.660;9.116;2023-08-06T05:44:42;13.70;99.90
15556;DHT22;7879;48.660;9.116;2023-08-06T05:47:09;13.70;99.90
15556;DHT22;7879;48.660;9.116;2023-08-06T05:49:36;13.70;99.90
15556;DHT22;7879;48.660;9.116;2023-08-06T05:52:03;13.70;99.90
15556;DHT22;7879;48.660;9.116;2023-08-06T05:54:32;13.70;99.90
15556;DHT22;7879;48.660;9.116;2023-08-06T05:56:59;13.70;99.90
15556;DHT22;7879;48.660;9.116;2023-08-06T05:59:26;13.70;99.90
15556;DHT22;7879;48.660;9.116;2023-08-06T06:01:53;13.70;99.90
15556;DHT22;7879;48.660;9.116;2023-08-06T06:04:21;13.70;99.90
15556;DHT22;7879;48.660;9.116;2023-08-06T06:06:48;13.70;99.90
15556;DHT22;7879;48.660;9.116;2023-08-06T06:09:15;13.70;99.90
15556;DHT22;7879;48.660;9.116;2023-08-06T06:11:41;13.80;99.90
15556;DHT22;7879;48.660;9.116;2023-08-06T06:14:08;13.60;99.90
15556;DHT22;7879;48.660;9.116;2023-08-06T06:16:35;13.60;99.90
15556;DHT22;7879;48.660;9.116;2023-08-06T06:19:02;13.60;99.90
15556;DHT22;7879;48.660;9.116;2023-08-06T06:21:29;13.60;99.90
15556;DHT22;7879;48.660;9.116;2023-08-06T06:23:55;13.60;99.90
15556;DHT22;7879;48.660;9.116;2023-08-06T06:26:23;13.50;99.90
15556;DHT22;7879;48.660;9.116;2023-08-06T06:28:50;13.60;99.90
15556;DHT22;7879;48.660;9.116;2023-08-06T06:31:16;13.60;99.90
15556;DHT22;7879;48.660;9.116;2023-08-06T06:33:43;13.60;99.90
15556;DHT22;7879;48.660;9.116;2023-08-06T06:36:10;13.50;99.90
15556;DHT22;7879;48.660;9.116;2023-08-06T06:38:37;13.60;99.90
15556;DHT22;7879;48.660;9.116;2023-08-06T06:41:04;13.60;99.90
15556;DHT22;7879;48.660;9.116;2023-08-06T06:43:32;13.60;99.90
15556;DHT22;7879;48.660;9.116;2023-08-06T06:45:59;13.60;99.90
15556;DHT22;7879;48.660;9.116;2023-08-06T06:48:27;13.60;99.90
15556;DHT22;7879;48.660;9.116;2023-08-06T06:50:55;13.60;99.90
15556;DHT22;7879;48.660;9.116;2023-08-06T06:53:22;13.60;99.90
15556;DHT22;7879;48.660;9.116;2023-08-06T06:55:55;13.60;99.90
15556;DHT22;7879;48.660;9.116;2023-08-06T06:58:22;13.60;99.90
15556;DHT22;7879;48.660;9.116;2023-08-06T07:00:49;13.60;99.90
15556;DHT22;7879;48.660;9.116;2023-08-06T07:03:15;13.70;99.90
15556;DHT22;7879;48.660;9.116;2023-08-06T07:05:45;13.70;99.90
15556;DHT22;7879;48.660;9.116;2023-08-06T07:08:12;13.60;99.90
15556;DHT22;7879;48.660;9.116;2023-08-06T07:10:41;13.70;99.90
15556;DHT22;7879;48.660;9.116;2023-08-06T07:13:09;13.60;99.90
15556;DHT22;7879;48.660;9.116;2023-08-06T07:15:36;13.60;99.90
15556;DHT22;7879;48.660;9.116;2023-08-06T07:18:03;13.60;99.90
15556;DHT22;7879;48.660;9.116;2023-08-06T07:20:30;13.60;99.90
15556;DHT22;7879;48.660;9.116;2023-08-06T07:22:58;13.50;99.90
15556;DHT22;7879;48.660;9.116;2023-08-06T07:25:25;13.50;99.90
15556;DHT22;7879;48.660;9.116;2023-08-06T07:27:52;13.50;99.90
15556;DHT22;7879;48.660;9.116;2023-08-06T07:30:19;13.50;99.90
15556;DHT22;7879;48.660;9.116;2023-08-06T07:32:45;13.50;99.90
15556;DHT22;7879;48.660;9.116;2023-08-06T07:35:12;13.50;99.90
15556;DHT22;7879;48.660;9.116;2023-08-06T07:37:41;13.50;99.90
15556;DHT22;7879;48.660;9.116;2023-08-06T07:40:08;13.50;99.90
15556;DHT22;7879;48.660;9.116;2023-08-06T07:42:35;13.50;99.90
15556;DHT22;7879;48.660;9.116;2023-08-06T07:45:03;13.50;99.90
15556;DHT22;7879;48.660;9.116;2023-08-06T07:47:29;13.60;99.90
15556;DHT22;7879;48.660;9.116;2023-08-06T07:49:56;13.60;99.90
15556;DHT22;7879;48.660;9.116;2023-08-06T07:52:23;13.70;99.90
15556;DHT22;7879;48.660;9.116;2023-08-06T07:54:50;13.60;99.90
15556;DHT22;7879;48.660;9.116;2023-08-06T07:57:17;13.60;99.90
15556;DHT22;7879;48.660;9.116;2023-08-06T07:59:43;13.70;99.90
15556;DHT22;7879;48.660;9.116;2023-08-06T08:02:10;13.70;99.90
15556;DHT22;7879;48.660;9.116;2023-08-06T08:04:37;13.80;99.90
15556;DHT22;7879;48.660;9.116;2023-08-06T08:07:04;13.90;99.90
15556;DHT22;7879;48.660;9.116;2023-08-06T08:09:31;14.00;99.90
15556;DHT22;7879;48.660;9.116;2023-08-06T08:11:58;14.20;99.90
15556;DHT22;7879;48.660;9.116;2023-08-06T08:14:27;14.40;99.90
15556;DHT22;7879;48.660;9.116;2023-08-06T08:16:55;14.40;99.90
15556;DHT22;7879;48.660;9.116;2023-08-06T08:19:22;14.50;99.90
15556;DHT22;7879;48.660;9.116;2023-08-06T08:21:49;14.50;99.90
15556;DHT22;7879;48.660;9.116;2023-08-06T08:24:16;14.40;99.90
15556;DHT22;7879;48.660;9.116;2023-08-06T08:26:46;14.30;99.90
15556;DHT22;7879;48.660;9.116;2023-08-06T08:29:13;14.20;99.90
15556;DHT22;7879;48.660;9.116;2023-08-06T08:31:39;14.10;99.90
15556;DHT22;7879;48.660;9.116;2023-08-06T08:34:06;14.10;99.90
15556;DHT22;7879;48.660;9.116;2023-08-06T08:36:33;14.10;99.90
15556;DHT22;7879;48.660;9.116;2023-08-06T08:39:00;14.00;99.90
15556;DHT22;7879;48.660;9.116;2023-08-06T08:41:30;14.00;99.90
15556;DHT22;7879;48.660;9.116;2023-08-06T08:43:58;14.10;99.90
15556;DHT22;7879;48.660;9.116;2023-08-06T08:46:30;14.00;99.90
15556;DHT22;7879;48.660;9.116;2023-08-06T08:49:02;14.00;99.90
15556;DHT22;7879;48.660;9.116;2023-08-06T08:51:29;14.00;99.90
15556;DHT22;7879;48.660;9.116;2023-08-06T08:53:56;14.10;99.90
15556;DHT22;7879;48.660;9.116;2023-08-06T08:56:24;14.20;99.90
15556;DHT22;7879;48.660;9.116;2023-08-06T08:58:51;14.10;99.90
15556;DHT22;7879;48.660;9.116;2023-08-06T09:01:23;14.10;99.90
15556;DHT22;7879;48.660;9.116;2023-08-06T09:03:51;14.20;99.90
15556;DHT22;7879;48.660;9.116;2023-08-06T09:06:19;14.20;99.90
15556;DHT22;7879;48.660;9.116;2023-08-06T09:08:53;14.30;99.90
15556;DHT22;7879;48.660;9.116;2023-08-06T09:11:21;14.30;99.90
15556;DHT22;7879;48.660;9.116;2023-08-06T09:13:48;14.40;99.90
15556;DHT22;7879;48.660;9.116;2023-08-06T09:16:15;14.50;99.90
15556;DHT22;7879;48.660;9.116;2023-08-06T09:18:42;14.60;99.90
15556;DHT22;7879;48.660;9.116;2023-08-06T09:21:14;14.70;99.90
15556;DHT22;7879;48.660;9.116;2023-08-06T09:23:42;14.80;99.90
15556;DHT22;7879;48.660;9.116;2023-08-06T09:26:11;14.80;99.90
15556;DHT22;7879;48.660;9.116;2023-08-06T09:28:42;14.70;99.90
15556;DHT22;7879;48.660;9.116;2023-08-06T09:31:10;14.70;99.90
15556;DHT22;7879;48.660;9.116;2023-08-06T09:33:37;14.80;99.90
15556;DHT22;7879;48.660;9.116;2023-08-06T09:36:11;14.80;99.90
15556;DHT22;7879;48.660;9.116;2023-08-06T09:38:39;15.00;99.90
15556;DHT22;7879;48.660;9.116;2023-08-06T09:41:07;15.00;99.90
15556;DHT22;7879;48.660;9.116;2023-08-06T09:43:43;15.00;99.90
15556;DHT22;7879;48.660;9.116;2023-08-06T09:46:13;14.90;99.90
15556;DHT22;7879;48.660;9.116;2023-08-06T09:48:41;14.90;99.90
15556;DHT22;7879;48.660;9.116;2023-08-06T09:51:11;14.90;99.90
15556;DHT22;7879;48.660;9.116;2023-08-06T09:53:40;15.00;99.90
15556;DHT22;7879;48.660;9.116;2023-08-06T09:56:08;14.90;99.90
15556;DHT22;7879;48.660;9.116;2023-08-06T09:58:37;14.90;99.90
15556;DHT22;7879;48.660;9.116;2023-08-06T10:01:04;14.80;99.90
15556;DHT22;7879;48.660;9.116;2023-08-06T10:03:32;14.80;99.90
15556;DHT22;7879;48.660;9.116;2023-08-06T10:06:00;14.80;99.90
15556;DHT22;7879;48.660;9.116;2023-08-06T10:08:29;14.60;99.90
15556;DHT22;7879;48.660;9.116;2023-08-06T10:10:55;14.60;99.90
15556;DHT22;7879;48.660;9.116;2023-08-06T10:13:24;14.40;99.90
15556;DHT22;7879;48.660;9.116;2023-08-06T10:15:52;14.40;99.90
15556;DHT22;7879;48.660;9.116;2023-08-06T10:18:19;14.40;99.90
15556;DHT22;7879;48.660;9.116;2023-08-06T10:20:49;14.40;99.90
15556;DHT22;7879;48.660;9.116;2023-08-06T10:23:15;14.40;99.90
15556;DHT22;7879;48.660;9.116;2023-08-06T10:25:43;14.30;99.90
15556;DHT22;7879;48.660;9.116;2023-08-06T10:28:19;14.30;99.90
15556;DHT22;7879;48.660;9.116;2023-08-06T10:30:47;14.30;99.90
15556;DHT22;7879;48.660;9.116;2023-08-06T10:33:14;14.30;99.90
15556;DHT22;7879;48.660;9.116;2023-08-06T10:35:47;14.30;99.90
15556;DHT22;7879;48.660;9.116;2023-08-06T10:38:20;14.30;99.90
15556;DHT22;7879;48.660;9.116;2023-08-06T10:43:32;14.50;99.90
15556;DHT22;7879;48.660;9.116;2023-08-06T10:46:01;14.50;99.90
15556;DHT22;7879;48.660;9.116;2023-08-06T10:48:39;14.40;99.90
15556;DHT22;7879;48.660;9.116;2023-08-06T10:51:11;14.40;99.90
15556;DHT22;7879;48.660;9.116;2023-08-06T10:53:42;14.40;99.90
15556;DHT22;7879;48.660;9.116;2023-08-06T10:56:16;14.40;99.90
15556;DHT22;7879;48.660;9.116;2023-08-06T10:58:45;14.40;99.90
15556;DHT22;7879;48.660;9.116;2023-08-06T11:01:12;14.50;99.90
15556;DHT22;7879;48.660;9.116;2023-08-06T11:03:41;14.50;99.90
15556;DHT22;7879;48.660;9.116;2023-08-06T11:06:08;14.50;99.90
15556;DHT22;7879;48.660;9.116;2023-08-06T11:08:37;14.50;99.90
15556;DHT22;7879;48.660;9.116;2023-08-06T11:11:17;14.50;99.90
15556;DHT22;7879;48.660;9.116;2023-08-06T11:13:48;14.50;99.90
15556;DHT22;7879;48.660;9.116;2023-08-06T11:16:20;14.60;99.90
15556;DHT22;7879;48.660;9.116;2023-08-06T11:18:48;14.60;99.90
15556;DHT22;7879;48.660;9.116;2023-08-06T11:21:19;14.60;99.90
15556;DHT22;7879;48.660;9.116;2023-08-06T11:23:46;14.80;99.90
15556;DHT22;7879;48.660;9.116;2023-08-06T11:26:13;14.80;99.90
15556;DHT22;7879;48.660;9.116;2023-08-06T11:28:45;14.80;99.90
15556;DHT22;7879;48.660;9.116;2023-08-06T11:31:21;14.80;99.90
15556;DHT22;7879;48.660;9.116;2023-08-06T11:33:52;14.80;99.90
15556;DHT22;7879;48.660;9.116;2023-08-06T11:36:33;14.80;99.90
15556;DHT22;7879;48.660;9.116;2023-08-06T11:39:02;14.70;99.90
15556;DHT22;7879;48.660;9.116;2023-08-06T11:41:32;14.70;99.90
15556;DHT22;7879;48.660;9.116;2023-08-06T11:44:00;14.70;99.90
15556;DHT22;7879;48.660;9.116;2023-08-06T11:46:27;14.70;99.90
15556;DHT22;7879;48.660;9.116;2023-08-06T11:48:58;14.70;99.90
15556;DHT22;7879;48.660;9.116;2023-08-06T11:51:26;14.80;99.90
15556;DHT22;7879;48.660;9.116;2023-08-06T11:53:57;14.80;99.90
15556;DHT22;7879;48.660;9.116;2023-08-06T11:56:25;14.80;99.90
15556;DHT22;7879;48.660;9.116;2023-08-06T11:58:54;14.80;99.90
15556;DHT22;7879;48.660;9.116;2023-08-06T12:01:21;14.70;99.90
15556;DHT22;7879;48.660;9.116;2023-08-06T12:03:48;14.70;99.90
15556;DHT22;7879;48.660;9.116;2023-08-06T12:06:15;14.70;99.90
15556;DHT22;7879;48.660;9.116;2023-08-06T12:08:42;14.60;99.90
15556;DHT22;7879;48.660;9.116;2023-08-06T12:11:09;14.70;99.90
15556;DHT22;7879;48.660;9.116;2023-08-06T12:13:36;14.70;99.90
15556;DHT22;7879;48.660;9.116;2023-08-06T12:16:02;14.70;99.90
15556;DHT22;7879;48.660;9.116;2023-08-06T12:18:29;14.70;99.90
15556;DHT22;7879;48.660;9.116;2023-08-06T12:20:56;14.60;99.90
15556;DHT22;7879;48.660;9.116;2023-08-06T12:23:23;14.60;99.90
15556;DHT22;7879;48.660;9.116;2023-08-06T12:25:49;14.60;99.90
15556;DHT22;7879;48.660;9.116;2023-08-06T12:28:16;14.60;99.90
15556;DHT22;7879;48.660;9.116;2023-08-06T12:30:43;14.60;99.90
15556;DHT22;7879;48.660;9.116;2023-08-06T12:33:11;14.70;99.90
15556;DHT22;7879;48.660;9.116;2023-08-06T12:35:38;14.80;99.90
15556;DHT22;7879;48.660;9.116;2023-08-06T12:38:05;14.80;99.90
15556;DHT22;7879;48.660;9.116;2023-08-06T12:40:32;14.80;99.90
15556;DHT22;7879;48.660;9.116;2023-08-06T12:43:04;14.80;99.90
15556;DHT22;7879;48.660;9.116;2023-08-06T12:45:31;14.70;99.90
15556;DHT22;7879;48.660;9.116;2023-08-06T12:47:58;14.70;99.90
15556;DHT22;7879;48.660;9.116;2023-08-06T12:50:25;14.70;99.90
15556;DHT22;7879;48.660;9.116;2023-08-06T12:52:52;14.60;99.90
15556;DHT22;7879;48.660;9.116;2023-08-06T12:55:19;14.60;99.90
15556;DHT22;7879;48.660;9.116;2023-08-06T12:57:45;14.70;99.90
15556;DHT22;7879;48.660;9.116;2023-08-06T13:00:25;14.70;99.90
15556;DHT22;7879;48.660;9.116;2023-08-06T13:02:52;14.70;99.90
15556;DHT22;7879;48.660;9.116;2023-08-06T13:05:19;14.60;99.90
15556;DHT22;7879;48.660;9.116;2023-08-06T13:07:46;14.60;99.90
15556;DHT22;7879;48.660;9.116;2023-08-06T13:10:13;14.60;99.90
15556;DHT22;7879;48.660;9.116;2023-08-06T13:12:40;14.70;99.90
15556;DHT22;7879;48.660;9.116;2023-08-06T13:15:07;14.80;99.90
15556;DHT22;7879;48.660;9.116;2023-08-06T13:17:34;14.90;99.90
15556;DHT22;7879;48.660;9.116;2023-08-06T13:20:01;14.90;99.90
15556;DHT22;7879;48.660;9.116;2023-08-06T13:22:28;15.00;99.90
15556;DHT22;7879;48.660;9.116;2023-08-06T13:24:54;14.90;99.90
15556;DHT22;7879;48.660;9.116;2023-08-06T13:27:21;14.90;99.90
15556;DHT22;7879;48.660;9.116;2023-08-06T13:29:48;15.10;99.90
15556;DHT22;7879;48.660;9.116;2023-08-06T13:32:15;15.10;99.90
15556;DHT22;7879;48.660;9.116;2023-08-06T13:34:42;15.20;99.90
15556;DHT22;7879;48.660;9.116;2023-08-06T13:37:08;15.30;99.90
15556;DHT22;7879;48.660;9.116;2023-08-06T13:39:35;15.30;99.90
15556;DHT22;7879;48.660;9.116;2023-08-06T13:42:02;15.30;99.90
15556;DHT22;7879;48.660;9.116;2023-08-06T13:44:29;15.30;99.90
15556;DHT22;7879;48.660;9.116;2023-08-06T13:46:55;15.30;99.90
15556;DHT22;7879;48.660;9.116;2023-08-06T13:49:23;15.40;99.90
15556;DHT22;7879;48.660;9.116;2023-08-06T13:51:50;15.40;99.90
15556;DHT22;7879;48.660;9.116;2023-08-06T13:54:16;15.40;99.90
15556;DHT22;7879;48.660;9.116;2023-08-06T13:56:43;15.40;99.90
15556;DHT22;7879;48.660;9.116;2023-08-06T13:59:10;15.40;99.90
15556;DHT22;7879;48.660;9.116;2023-08-06T14:01:40;15.50;99.90
15556;DHT22;7879;48.660;9.116;2023-08-06T14:04:17;15.50;99.90
15556;DHT22;7879;48.660;9.116;2023-08-06T14:06:44;15.60;99.90
15556;DHT22;7879;48.660;9.116;2023-08-06T14:09:10;15.50;99.90
15556;DHT22;7879;48.660;9.116;2023-08-06T14:11:40;15.50;99.90
15556;DHT22;7879;48.660;9.116;2023-08-06T14:14:07;15.40;99.90
15556;DHT22;7879;48.660;9.116;2023-08-06T14:16:34;15.30;99.90
15556;DHT22;7879;48.660;9.116;2023-08-06T14:19:01;15.20;99.90
15556;DHT22;7879;48.660;9.116;2023-08-06T14:21:28;15.20;99.90
15556;DHT22;7879;48.660;9.116;2023-08-06T14:23:55;15.30;99.90
15556;DHT22;7879;48.660;9.116;2023-08-06T14:26:22;15.20;99.90
15556;DHT22;7879;48.660;9.116;2023-08-06T14:28:49;15.20;99.90
15556;DHT22;7879;48.660;9.116;2023-08-06T14:31:16;15.10;99.90
15556;DHT22;7879;48.660;9.116;2023-08-06T14:33:42;15.00;99.90
15556;DHT22;7879;48.660;9.116;2023-08-06T14:36:09;14.90;99.90
15556;DHT22;7879;48.660;9.116;2023-08-06T14:38:36;15.00;99.90
15556;DHT22;7879;48.660;9.116;2023-08-06T14:41:19;14.90;99.90
15556;DHT22;7879;48.660;9.116;2023-08-06T14:43:46;15.00;99.90
15556;DHT22;7879;48.660;9.116;2023-08-06T14:46:13;15.00;99.90
15556;DHT22;7879;48.660;9.116;2023-08-06T14:48:40;15.10;99.90
15556;DHT22;7879;48.660;9.116;2023-08-06T14:51:06;15.00;99.90
15556;DHT22;7879;48.660;9.116;2023-08-06T14:53:33;15.00;99.90
15556;DHT22;7879;48.660;9.116;2023-08-06T14:56:00;15.00;99.90
15556;DHT22;7879;48.660;9.116;2023-08-06T14:58:27;15.00;99.90
15556;DHT22;7879;48.660;9.116;2023-08-06T15:00:53;15.10;99.90
15556;DHT22;7879;48.660;9.116;2023-08-06T15:03:20;15.10;99.90
15556;DHT22;7879;48.660;9.116;2023-08-06T15:05:48;15.00;99.90
15556;DHT22;7879;48.660;9.116;2023-08-06T15:08:15;14.90;99.90
15556;DHT22;7879;48.660;9.116;2023-08-06T15:10:42;15.00;99.90
15556;DHT22;7879;48.660;9.116;2023-08-06T15:13:09;15.00;99.90
15556;DHT22;7879;48.660;9.116;2023-08-06T15:15:36;14.90;99.90
15556;DHT22;7879;48.660;9.116;2023-08-06T15:18:03;14.90;99.90
15556;DHT22;7879;48.660;9.116;2023-08-06T15:20:30;14.80;99.90
15556;DHT22;7879;48.660;9.116;2023-08-06T15:22:57;14.80;99.90
15556;DHT22;7879;48.660;9.116;2023-08-06T15:25:24;14.80;99.90
15556;DHT22;7879;48.660;9.116;2023-08-06T15:27:51;14.80;99.90
15556;DHT22;7879;48.660;9.116;2023-08-06T15:30:18;14.90;99.90
15556;DHT22;7879;48.660;9.116;2023-08-06T15:32:46;15.00;99.90
15556;DHT22;7879;48.660;9.116;2023-08-06T15:35:14;15.10;99.90
15556;DHT22;7879;48.660;9.116;2023-08-06T15:37:40;15.10;99.90
15556;DHT22;7879;48.660;9.116;2023-08-06T15:40:08;15.10;99.90
15556;DHT22;7879;48.660;9.116;2023-08-06T15:42:34;15.10;99.90
15556;DHT22;7879;48.660;9.116;2023-08-06T15:45:01;15.10;99.90
15556;DHT22;7879;48.660;9.116;2023-08-06T15:47:29;15.10;99.90
15556;DHT22;7879;48.660;9.116;2023-08-06T15:49:56;15.10;99.90
15556;DHT22;7879;48.660;9.116;2023-08-06T15:52:23;15.20;99.90
15556;DHT22;7879;48.660;9.116;2023-08-06T15:54:50;15.40;99.90
15556;DHT22;7879;48.660;9.116;2023-08-06T15:57:17;15.40;99.90